sensor_id;sensor_type;location;lat;lon;timestamp;P1;durP1;ratioP1;P2;durP2;ratioP2
63499;SDS011;49654;51.142;14.924;2023-04-19T00:01:04;19.40;;;15.75;;
63499;SDS011;49654;51.142;14.924;2023-04-19T00:03:31;20.60;;;16.00;;
63499;SDS011;49654;51.142;14.924;2023-04-19T00:05:59;18.52;;;15.40;;
63499;SDS011;49654;51.142;14.924;2023-04-19T00:08:27;19.30;;;16.20;;
63499;SDS011;49654;51.142;14.924;2023-04-19T00:10:55;18.00;;;14.65;;
63499;SDS011;49654;51.142;14.924;2023-04-19T00:13:22;18.80;;;15.60;;
63499;SDS011;49654;51.142;14.924;2023-04-19T00:15:48;19.90;;;15.98;;
63499;SDS011;49654;51.142;14.924;2023-04-19T00:18:15;19.55;;;15.77;;
63499;SDS011;49654;51.142;14.924;2023-04-19T00:20:42;16.55;;;13.85;;
63499;SDS011;49654;51.142;14.924;2023-04-19T00:23:11;21.70;;;15.55;;
63499;SDS011;49654;51.142;14.924;2023-04-19T00:25:38;18.23;;;14.63;;
63499;SDS011;49654;51.142;14.924;2023-04-19T00:28:05;18.10;;;14.43;;
63499;SDS011;49654;51.142;14.924;2023-04-19T00:30:32;17.23;;;14.75;;
63499;SDS011;49654;51.142;14.924;2023-04-19T00:32:59;18.30;;;14.65;;
63499;SDS011;49654;51.142;14.924;2023-04-19T00:35:26;18.05;;;14.27;;
63499;SDS011;49654;51.142;14.924;2023-04-19T00:37:53;16.17;;;13.88;;
63499;SDS011;49654;51.142;14.924;2023-04-19T00:40:21;19.33;;;13.73;;
63499;SDS011;49654;51.142;14.924;2023-04-19T00:42:48;16.48;;;13.63;;
63499;SDS011;49654;51.142;14.924;2023-04-19T00:45:15;16.63;;;13.10;;
63499;SDS011;49654;51.142;14.924;2023-04-19T00:47:42;18.27;;;13.25;;
63499;SDS011;49654;51.142;14.924;2023-04-19T00:50:09;17.27;;;13.00;;
63499;SDS011;49654;51.142;14.924;2023-04-19T00:52:37;15.82;;;13.13;;
63499;SDS011;49654;51.142;14.924;2023-04-19T00:55:05;15.35;;;12.75;;
63499;SDS011;49654;51.142;14.924;2023-04-19T00:57:34;15.07;;;12.82;;
63499;SDS011;49654;51.142;14.924;2023-04-19T01:00:02;17.02;;;12.80;;
63499;SDS011;49654;51.142;14.924;2023-04-19T01:02:32;15.63;;;12.65;;
63499;SDS011;49654;51.142;14.924;2023-04-19T01:04:59;14.93;;;11.90;;
63499;SDS011;49654;51.142;14.924;2023-04-19T01:07:26;15.15;;;11.77;;
63499;SDS011;49654;51.142;14.924;2023-04-19T01:09:53;15.10;;;11.68;;
63499;SDS011;49654;51.142;14.924;2023-04-19T01:12:20;13.13;;;10.95;;
63499;SDS011;49654;51.142;14.924;2023-04-19T01:14:48;12.95;;;11.55;;
63499;SDS011;49654;51.142;14.924;2023-04-19T01:17:16;14.13;;;11.50;;
63499;SDS011;49654;51.142;14.924;2023-04-19T01:19:43;13.32;;;11.38;;
63499;SDS011;49654;51.142;14.924;2023-04-19T01:22:15;12.80;;;10.75;;
63499;SDS011;49654;51.142;14.924;2023-04-19T01:24:42;12.85;;;10.80;;
63499;SDS011;49654;51.142;14.924;2023-04-19T01:27:09;13.73;;;10.75;;
63499;SDS011;49654;51.142;14.924;2023-04-19T01:29:38;15.23;;;11.77;;
63499;SDS011;49654;51.142;14.924;2023-04-19T01:32:05;13.88;;;10.88;;
63499;SDS011;49654;51.142;14.924;2023-04-19T01:34:32;12.55;;;10.60;;
63499;SDS011;49654;51.142;14.924;2023-04-19T01:36:59;14.80;;;10.93;;
63499;SDS011;49654;51.142;14.924;2023-04-19T01:39:27;14.20;;;10.57;;
63499;SDS011;49654;51.142;14.924;2023-04-19T01:41:54;13.18;;;10.75;;
63499;SDS011;49654;51.142;14.924;2023-04-19T01:44:21;14.18;;;11.05;;
63499;SDS011;49654;51.142;14.924;2023-04-19T01:46:48;12.35;;;10.65;;
63499;SDS011;49654;51.142;14.924;2023-04-19T01:49:15;12.90;;;10.55;;
63499;SDS011;49654;51.142;14.924;2023-04-19T01:51:42;13.82;;;10.88;;
63499;SDS011;49654;51.142;14.924;2023-04-19T01:54:09;13.32;;;10.73;;
63499;SDS011;49654;51.142;14.924;2023-04-19T01:56:37;13.25;;;10.07;;
63499;SDS011;49654;51.142;14.924;2023-04-19T01:59:04;14.55;;;10.85;;
63499;SDS011;49654;51.142;14.924;2023-04-19T02:01:31;12.65;;;10.43;;
63499;SDS011;49654;51.142;14.924;2023-04-19T02:03:57;12.48;;;9.80;;
63499;SDS011;49654;51.142;14.924;2023-04-19T02:06:24;12.57;;;10.38;;
63499;SDS011;49654;51.142;14.924;2023-04-19T02:08:52;13.98;;;10.30;;
63499;SDS011;49654;51.142;14.924;2023-04-19T02:11:19;11.98;;;10.15;;
63499;SDS011;49654;51.142;14.924;2023-04-19T02:13:47;12.13;;;10.45;;
63499;SDS011;49654;51.142;14.924;2023-04-19T02:16:14;14.77;;;10.10;;
63499;SDS011;49654;51.142;14.924;2023-04-19T02:18:41;15.40;;;10.00;;
63499;SDS011;49654;51.142;14.924;2023-04-19T02:21:08;15.77;;;10.82;;
63499;SDS011;49654;51.142;14.924;2023-04-19T02:23:35;15.10;;;10.48;;
63499;SDS011;49654;51.142;14.924;2023-04-19T02:26:02;16.10;;;9.98;;
63499;SDS011;49654;51.142;14.924;2023-04-19T02:28:29;13.02;;;9.85;;
63499;SDS011;49654;51.142;14.924;2023-04-19T02:30:57;15.05;;;10.38;;
63499;SDS011;49654;51.142;14.924;2023-04-19T02:33:25;13.85;;;10.55;;
63499;SDS011;49654;51.142;14.924;2023-04-19T02:35:53;13.55;;;10.70;;
63499;SDS011;49654;51.142;14.924;2023-04-19T02:38:20;15.20;;;10.77;;
63499;SDS011;49654;51.142;14.924;2023-04-19T02:40:47;13.70;;;10.38;;
63499;SDS011;49654;51.142;14.924;2023-04-19T02:43:13;13.25;;;9.40;;
63499;SDS011;49654;51.142;14.924;2023-04-19T02:45:40;14.88;;;9.73;;
63499;SDS011;49654;51.142;14.924;2023-04-19T02:48:09;11.52;;;9.68;;
63499;SDS011;49654;51.142;14.924;2023-04-19T02:50:35;13.50;;;10.07;;
63499;SDS011;49654;51.142;14.924;2023-04-19T02:53:02;13.55;;;10.43;;
63499;SDS011;49654;51.142;14.924;2023-04-19T02:55:29;12.75;;;9.40;;
63499;SDS011;49654;51.142;14.924;2023-04-19T02:57:56;13.70;;;9.63;;
63499;SDS011;49654;51.142;14.924;2023-04-19T03:00:23;13.05;;;10.40;;
63499;SDS011;49654;51.142;14.924;2023-04-19T03:02:50;12.13;;;9.52;;
63499;SDS011;49654;51.142;14.924;2023-04-19T03:05:18;14.00;;;9.23;;
63499;SDS011;49654;51.142;14.924;2023-04-19T03:07:45;13.98;;;9.35;;
63499;SDS011;49654;51.142;14.924;2023-04-19T03:10:12;10.88;;;9.00;;
63499;SDS011;49654;51.142;14.924;2023-04-19T03:12:39;12.30;;;9.23;;
63499;SDS011;49654;51.142;14.924;2023-04-19T03:15:07;12.85;;;9.55;;
63499;SDS011;49654;51.142;14.924;2023-04-19T03:17:34;12.18;;;8.85;;
63499;SDS011;49654;51.142;14.924;2023-04-19T03:20:02;12.02;;;9.00;;
63499;SDS011;49654;51.142;14.924;2023-04-19T03:22:35;12.18;;;10.20;;
63499;SDS011;49654;51.142;14.924;2023-04-19T03:25:02;13.70;;;9.45;;
63499;SDS011;49654;51.142;14.924;2023-04-19T03:27:30;13.18;;;9.95;;
63499;SDS011;49654;51.142;14.924;2023-04-19T03:29:58;14.30;;;9.60;;
63499;SDS011;49654;51.142;14.924;2023-04-19T03:32:25;11.82;;;9.32;;
63499;SDS011;49654;51.142;14.924;2023-04-19T03:34:52;11.40;;;9.45;;
63499;SDS011;49654;51.142;14.924;2023-04-19T03:37:19;14.32;;;10.02;;
63499;SDS011;49654;51.142;14.924;2023-04-19T03:39:47;13.02;;;10.00;;
63499;SDS011;49654;51.142;14.924;2023-04-19T03:42:14;14.98;;;10.25;;
63499;SDS011;49654;51.142;14.924;2023-04-19T03:44:41;15.63;;;10.70;;
63499;SDS011;49654;51.142;14.924;2023-04-19T03:47:08;13.77;;;10.50;;
63499;SDS011;49654;51.142;14.924;2023-04-19T03:49:35;19.33;;;10.98;;
63499;SDS011;49654;51.142;14.924;2023-04-19T03:52:01;13.57;;;10.88;;
63499;SDS011;49654;51.142;14.924;2023-04-19T03:54:28;17.63;;;11.10;;
63499;SDS011;49654;51.142;14.924;2023-04-19T03:56:57;13.93;;;9.98;;
63499;SDS011;49654;51.142;14.924;2023-04-19T03:59:24;16.58;;;10.45;;
63499;SDS011;49654;51.142;14.924;2023-04-19T04:01:50;14.80;;;10.02;;
63499;SDS011;49654;51.142;14.924;2023-04-19T04:04:17;16.60;;;10.20;;
63499;SDS011;49654;51.142;14.924;2023-04-19T04:06:44;15.98;;;9.93;;
63499;SDS011;49654;51.142;14.924;2023-04-19T04:09:11;12.77;;;9.50;;
63499;SDS011;49654;51.142;14.924;2023-04-19T04:11:38;11.93;;;9.13;;
63499;SDS011;49654;51.142;14.924;2023-04-19T04:14:06;12.30;;;9.25;;
63499;SDS011;49654;51.142;14.924;2023-04-19T04:16:33;14.05;;;10.00;;
63499;SDS011;49654;51.142;14.924;2023-04-19T04:19:00;12.57;;;9.40;;
63499;SDS011;49654;51.142;14.924;2023-04-19T04:21:27;11.77;;;8.88;;
63499;SDS011;49654;51.142;14.924;2023-04-19T04:23:54;12.57;;;8.57;;
63499;SDS011;49654;51.142;14.924;2023-04-19T04:26:21;13.40;;;9.30;;
63499;SDS011;49654;51.142;14.924;2023-04-19T04:28:49;25.10;;;14.95;;
63499;SDS011;49654;51.142;14.924;2023-04-19T04:31:19;13.18;;;10.20;;
63499;SDS011;49654;51.142;14.924;2023-04-19T04:33:46;14.30;;;11.43;;
63499;SDS011;49654;51.142;14.924;2023-04-19T04:36:13;17.25;;;13.25;;
63499;SDS011;49654;51.142;14.924;2023-04-19T04:38:40;17.15;;;11.52;;
63499;SDS011;49654;51.142;14.924;2023-04-19T04:41:07;13.82;;;9.43;;
63499;SDS011;49654;51.142;14.924;2023-04-19T04:43:34;15.13;;;9.15;;
63499;SDS011;49654;51.142;14.924;2023-04-19T04:46:01;14.25;;;9.40;;
63499;SDS011;49654;51.142;14.924;2023-04-19T04:48:30;13.68;;;9.90;;
63499;SDS011;49654;51.142;14.924;2023-04-19T04:50:57;14.40;;;9.07;;
63499;SDS011;49654;51.142;14.924;2023-04-19T04:53:24;12.23;;;8.07;;
63499;SDS011;49654;51.142;14.924;2023-04-19T04:55:52;10.30;;;8.57;;
63499;SDS011;49654;51.142;14.924;2023-04-19T04:58:19;11.27;;;7.88;;
63499;SDS011;49654;51.142;14.924;2023-04-19T05:00:46;13.90;;;8.02;;
63499;SDS011;49654;51.142;14.924;2023-04-19T05:03:13;9.35;;;6.90;;
63499;SDS011;49654;51.142;14.924;2023-04-19T05:05:42;8.18;;;6.55;;
63499;SDS011;49654;51.142;14.924;2023-04-19T05:08:09;14.68;;;7.57;;
63499;SDS011;49654;51.142;14.924;2023-04-19T05:10:36;11.45;;;8.20;;
63499;SDS011;49654;51.142;14.924;2023-04-19T05:13:03;11.50;;;6.95;;
63499;SDS011;49654;51.142;14.924;2023-04-19T05:15:30;7.78;;;5.90;;
63499;SDS011;49654;51.142;14.924;2023-04-19T05:17:57;10.18;;;6.75;;
63499;SDS011;49654;51.142;14.924;2023-04-19T05:20:24;9.82;;;5.72;;
63499;SDS011;49654;51.142;14.924;2023-04-19T05:22:56;7.32;;;5.80;;
63499;SDS011;49654;51.142;14.924;2023-04-19T05:25:23;9.32;;;5.85;;
63499;SDS011;49654;51.142;14.924;2023-04-19T05:27:50;8.50;;;5.60;;
63499;SDS011;49654;51.142;14.924;2023-04-19T05:30:17;12.95;;;5.95;;
63499;SDS011;49654;51.142;14.924;2023-04-19T05:32:44;9.10;;;5.20;;
63499;SDS011;49654;51.142;14.924;2023-04-19T05:35:11;9.80;;;5.05;;
63499;SDS011;49654;51.142;14.924;2023-04-19T05:37:38;8.18;;;5.80;;
63499;SDS011;49654;51.142;14.924;2023-04-19T05:40:08;6.93;;;4.80;;
63499;SDS011;49654;51.142;14.924;2023-04-19T05:42:35;11.43;;;4.82;;
63499;SDS011;49654;51.142;14.924;2023-04-19T05:45:02;5.53;;;4.25;;
63499;SDS011;49654;51.142;14.924;2023-04-19T05:47:30;5.78;;;4.38;;
63499;SDS011;49654;51.142;14.924;2023-04-19T05:49:57;14.98;;;5.03;;
63499;SDS011;49654;51.142;14.924;2023-04-19T05:52:24;9.15;;;4.35;;
63499;SDS011;49654;51.142;14.924;2023-04-19T05:54:51;10.27;;;4.65;;
63499;SDS011;49654;51.142;14.924;2023-04-19T05:57:19;5.47;;;4.10;;
63499;SDS011;49654;51.142;14.924;2023-04-19T05:59:46;6.30;;;3.97;;
63499;SDS011;49654;51.142;14.924;2023-04-19T06:02:13;6.65;;;4.13;;
63499;SDS011;49654;51.142;14.924;2023-04-19T06:04:40;7.80;;;4.15;;
63499;SDS011;49654;51.142;14.924;2023-04-19T06:07:07;6.80;;;3.80;;
63499;SDS011;49654;51.142;14.924;2023-04-19T06:09:34;7.43;;;3.63;;
63499;SDS011;49654;51.142;14.924;2023-04-19T06:12:01;6.20;;;3.63;;
63499;SDS011;49654;51.142;14.924;2023-04-19T06:14:29;6.47;;;4.20;;
63499;SDS011;49654;51.142;14.924;2023-04-19T06:16:56;8.10;;;3.63;;
63499;SDS011;49654;51.142;14.924;2023-04-19T06:19:23;5.97;;;3.80;;
63499;SDS011;49654;51.142;14.924;2023-04-19T06:21:50;9.10;;;4.00;;
63499;SDS011;49654;51.142;14.924;2023-04-19T06:24:17;5.97;;;3.60;;
63499;SDS011;49654;51.142;14.924;2023-04-19T06:26:43;9.00;;;3.85;;
63499;SDS011;49654;51.142;14.924;2023-04-19T06:29:12;6.33;;;3.90;;
63499;SDS011;49654;51.142;14.924;2023-04-19T06:31:40;6.43;;;4.13;;
63499;SDS011;49654;51.142;14.924;2023-04-19T06:34:07;10.25;;;3.95;;
63499;SDS011;49654;51.142;14.924;2023-04-19T06:36:35;8.60;;;4.15;;
63499;SDS011;49654;51.142;14.924;2023-04-19T06:39:02;6.10;;;3.80;;
63499;SDS011;49654;51.142;14.924;2023-04-19T06:41:29;6.40;;;3.88;;
63499;SDS011;49654;51.142;14.924;2023-04-19T06:43:56;6.40;;;3.20;;
63499;SDS011;49654;51.142;14.924;2023-04-19T06:46:23;9.97;;;3.53;;
63499;SDS011;49654;51.142;14.924;2023-04-19T06:48:53;7.20;;;3.40;;
63499;SDS011;49654;51.142;14.924;2023-04-19T06:51:21;4.73;;;3.63;;
63499;SDS011;49654;51.142;14.924;2023-04-19T06:53:49;4.72;;;3.40;;
63499;SDS011;49654;51.142;14.924;2023-04-19T06:56:16;5.60;;;3.33;;
63499;SDS011;49654;51.142;14.924;2023-04-19T06:58:43;5.63;;;3.55;;
63499;SDS011;49654;51.142;14.924;2023-04-19T07:01:10;5.40;;;3.45;;
63499;SDS011;49654;51.142;14.924;2023-04-19T07:03:37;4.82;;;3.53;;
63499;SDS011;49654;51.142;14.924;2023-04-19T07:06:05;7.43;;;3.70;;
63499;SDS011;49654;51.142;14.924;2023-04-19T07:08:33;8.90;;;3.95;;
63499;SDS011;49654;51.142;14.924;2023-04-19T07:11:00;7.93;;;3.67;;
63499;SDS011;49654;51.142;14.924;2023-04-19T07:13:27;5.85;;;3.40;;
63499;SDS011;49654;51.142;14.924;2023-04-19T07:15:54;5.93;;;3.58;;
63499;SDS011;49654;51.142;14.924;2023-04-19T07:18:21;5.93;;;3.50;;
63499;SDS011;49654;51.142;14.924;2023-04-19T07:20:47;6.18;;;3.88;;
63499;SDS011;49654;51.142;14.924;2023-04-19T07:23:16;6.15;;;3.88;;
63499;SDS011;49654;51.142;14.924;2023-04-19T07:25:43;3.85;;;3.15;;
63499;SDS011;49654;51.142;14.924;2023-04-19T07:28:10;7.20;;;4.32;;
63499;SDS011;49654;51.142;14.924;2023-04-19T07:30:38;5.78;;;3.45;;
63499;SDS011;49654;51.142;14.924;2023-04-19T07:33:04;6.03;;;3.28;;
63499;SDS011;49654;51.142;14.924;2023-04-19T07:35:33;5.78;;;3.35;;
63499;SDS011;49654;51.142;14.924;2023-04-19T07:38:00;5.68;;;3.63;;
63499;SDS011;49654;51.142;14.924;2023-04-19T07:40:29;5.97;;;2.92;;
63499;SDS011;49654;51.142;14.924;2023-04-19T07:42:56;4.50;;;3.55;;
63499;SDS011;49654;51.142;14.924;2023-04-19T07:45:22;6.32;;;3.28;;
63499;SDS011;49654;51.142;14.924;2023-04-19T07:47:49;6.03;;;3.10;;
63499;SDS011;49654;51.142;14.924;2023-04-19T07:50:16;4.95;;;3.50;;
63499;SDS011;49654;51.142;14.924;2023-04-19T07:52:43;5.38;;;3.17;;
63499;SDS011;49654;51.142;14.924;2023-04-19T07:55:10;6.20;;;3.10;;
63499;SDS011;49654;51.142;14.924;2023-04-19T07:57:38;4.97;;;3.05;;
63499;SDS011;49654;51.142;14.924;2023-04-19T08:00:11;5.10;;;3.55;;
63499;SDS011;49654;51.142;14.924;2023-04-19T08:02:41;7.43;;;3.83;;
63499;SDS011;49654;51.142;14.924;2023-04-19T08:05:08;6.15;;;3.80;;
63499;SDS011;49654;51.142;14.924;2023-04-19T08:07:35;7.68;;;3.17;;
63499;SDS011;49654;51.142;14.924;2023-04-19T08:10:02;5.30;;;3.47;;
63499;SDS011;49654;51.142;14.924;2023-04-19T08:12:30;6.28;;;3.30;;
63499;SDS011;49654;51.142;14.924;2023-04-19T08:14:58;4.40;;;3.30;;
63499;SDS011;49654;51.142;14.924;2023-04-19T08:17:25;8.02;;;3.50;;
63499;SDS011;49654;51.142;14.924;2023-04-19T08:19:52;6.70;;;4.18;;
63499;SDS011;49654;51.142;14.924;2023-04-19T08:22:19;6.22;;;4.18;;
63499;SDS011;49654;51.142;14.924;2023-04-19T08:24:47;8.90;;;4.70;;
63499;SDS011;49654;51.142;14.924;2023-04-19T08:27:16;10.88;;;4.28;;
63499;SDS011;49654;51.142;14.924;2023-04-19T08:29:43;6.93;;;4.38;;
63499;SDS011;49654;51.142;14.924;2023-04-19T08:32:11;6.95;;;4.78;;
63499;SDS011;49654;51.142;14.924;2023-04-19T08:34:39;9.40;;;5.03;;
63499;SDS011;49654;51.142;14.924;2023-04-19T08:37:06;7.75;;;4.47;;
63499;SDS011;49654;51.142;14.924;2023-04-19T08:39:33;7.60;;;5.00;;
63499;SDS011;49654;51.142;14.924;2023-04-19T08:42:02;8.68;;;4.82;;
63499;SDS011;49654;51.142;14.924;2023-04-19T08:44:31;9.20;;;5.28;;
63499;SDS011;49654;51.142;14.924;2023-04-19T08:46:59;9.35;;;5.28;;
63499;SDS011;49654;51.142;14.924;2023-04-19T08:49:27;8.65;;;5.22;;
63499;SDS011;49654;51.142;14.924;2023-04-19T08:51:56;10.90;;;5.55;;
63499;SDS011;49654;51.142;14.924;2023-04-19T08:54:23;8.65;;;5.55;;
63499;SDS011;49654;51.142;14.924;2023-04-19T08:56:51;6.97;;;5.45;;
63499;SDS011;49654;51.142;14.924;2023-04-19T08:59:18;13.43;;;6.00;;
63499;SDS011;49654;51.142;14.924;2023-04-19T09:01:45;9.55;;;6.25;;
63499;SDS011;49654;51.142;14.924;2023-04-19T09:04:13;9.55;;;6.00;;
63499;SDS011;49654;51.142;14.924;2023-04-19T09:06:41;8.95;;;5.43;;
63499;SDS011;49654;51.142;14.924;2023-04-19T09:09:15;9.30;;;5.68;;
63499;SDS011;49654;51.142;14.924;2023-04-19T09:11:44;11.40;;;6.05;;
63499;SDS011;49654;51.142;14.924;2023-04-19T09:14:12;9.93;;;6.07;;
63499;SDS011;49654;51.142;14.924;2023-04-19T09:16:40;9.98;;;5.82;;
63499;SDS011;49654;51.142;14.924;2023-04-19T09:19:07;8.27;;;5.43;;
63499;SDS011;49654;51.142;14.924;2023-04-19T09:21:35;12.27;;;5.47;;
63499;SDS011;49654;51.142;14.924;2023-04-19T09:24:03;9.70;;;5.88;;
63499;SDS011;49654;51.142;14.924;2023-04-19T09:26:31;9.80;;;5.95;;
63499;SDS011;49654;51.142;14.924;2023-04-19T09:28:59;7.65;;;5.40;;
63499;SDS011;49654;51.142;14.924;2023-04-19T09:31:28;9.60;;;5.55;;
63499;SDS011;49654;51.142;14.924;2023-04-19T09:33:56;11.25;;;5.50;;
63499;SDS011;49654;51.142;14.924;2023-04-19T09:36:26;8.82;;;5.60;;
63499;SDS011;49654;51.142;14.924;2023-04-19T09:38:54;8.60;;;5.47;;
63499;SDS011;49654;51.142;14.924;2023-04-19T09:41:22;8.45;;;5.65;;
63499;SDS011;49654;51.142;14.924;2023-04-19T09:43:49;11.80;;;5.70;;
63499;SDS011;49654;51.142;14.924;2023-04-19T09:46:29;8.55;;;5.82;;
63499;SDS011;49654;51.142;14.924;2023-04-19T09:49:14;8.60;;;5.55;;
63499;SDS011;49654;51.142;14.924;2023-04-19T09:51:41;6.00;;;4.90;;
63499;SDS011;49654;51.142;14.924;2023-04-19T09:54:10;10.38;;;5.47;;
63499;SDS011;49654;51.142;14.924;2023-04-19T09:56:40;10.50;;;5.53;;
63499;SDS011;49654;51.142;14.924;2023-04-19T09:59:07;11.88;;;5.82;;
63499;SDS011;49654;51.142;14.924;2023-04-19T10:01:37;8.18;;;5.25;;
63499;SDS011;49654;51.142;14.924;2023-04-19T10:04:05;6.15;;;4.45;;
63499;SDS011;49654;51.142;14.924;2023-04-19T10:06:35;9.75;;;5.00;;
63499;SDS011;49654;51.142;14.924;2023-04-19T10:09:03;8.45;;;4.82;;
63499;SDS011;49654;51.142;14.924;2023-04-19T10:11:30;6.30;;;4.40;;
63499;SDS011;49654;51.142;14.924;2023-04-19T10:14:04;11.50;;;4.50;;
63499;SDS011;49654;51.142;14.924;2023-04-19T10:16:33;6.93;;;4.85;;
63499;SDS011;49654;51.142;14.924;2023-04-19T10:19:01;13.80;;;7.53;;
63499;SDS011;49654;51.142;14.924;2023-04-19T10:21:29;9.23;;;6.55;;
63499;SDS011;49654;51.142;14.924;2023-04-19T10:23:57;5.95;;;4.10;;
63499;SDS011;49654;51.142;14.924;2023-04-19T10:26:25;6.82;;;4.40;;
63499;SDS011;49654;51.142;14.924;2023-04-19T10:28:53;5.78;;;4.20;;
63499;SDS011;49654;51.142;14.924;2023-04-19T10:31:23;6.93;;;4.40;;
63499;SDS011;49654;51.142;14.924;2023-04-19T10:33:51;8.35;;;4.20;;
63499;SDS011;49654;51.142;14.924;2023-04-19T10:36:19;8.30;;;4.38;;
63499;SDS011;49654;51.142;14.924;2023-04-19T10:38:46;7.03;;;4.25;;
63499;SDS011;49654;51.142;14.924;2023-04-19T10:41:16;6.10;;;4.13;;
63499;SDS011;49654;51.142;14.924;2023-04-19T10:43:45;4.63;;;3.80;;
63499;SDS011;49654;51.142;14.924;2023-04-19T10:46:13;6.97;;;4.20;;
63499;SDS011;49654;51.142;14.924;2023-04-19T10:48:53;8.95;;;4.25;;
63499;SDS011;49654;51.142;14.924;2023-04-19T10:51:25;7.72;;;5.15;;
63499;SDS011;49654;51.142;14.924;2023-04-19T10:53:53;5.63;;;4.05;;
63499;SDS011;49654;51.142;14.924;2023-04-19T10:56:22;6.63;;;3.90;;
63499;SDS011;49654;51.142;14.924;2023-04-19T10:59:28;10.57;;;4.00;;
63499;SDS011;49654;51.142;14.924;2023-04-19T11:01:56;7.10;;;4.22;;
63499;SDS011;49654;51.142;14.924;2023-04-19T11:07:26;5.93;;;4.05;;
63499;SDS011;49654;51.142;14.924;2023-04-19T11:09:53;5.15;;;3.90;;
63499;SDS011;49654;51.142;14.924;2023-04-19T11:12:20;6.28;;;4.20;;
63499;SDS011;49654;51.142;14.924;2023-04-19T11:14:48;9.90;;;4.30;;
63499;SDS011;49654;51.142;14.924;2023-04-19T11:17:18;5.68;;;4.07;;
63499;SDS011;49654;51.142;14.924;2023-04-19T11:19:53;7.80;;;4.97;;
63499;SDS011;49654;51.142;14.924;2023-04-19T11:22:24;9.20;;;6.72;;
63499;SDS011;49654;51.142;14.924;2023-04-19T11:24:55;6.85;;;5.15;;
63499;SDS011;49654;51.142;14.924;2023-04-19T11:27:22;7.88;;;5.13;;
63499;SDS011;49654;51.142;14.924;2023-04-19T11:29:50;6.00;;;4.22;;
63499;SDS011;49654;51.142;14.924;2023-04-19T11:32:19;7.68;;;5.03;;
63499;SDS011;49654;51.142;14.924;2023-04-19T11:34:46;7.43;;;4.65;;
63499;SDS011;49654;51.142;14.924;2023-04-19T11:37:13;7.57;;;4.70;;
63499;SDS011;49654;51.142;14.924;2023-04-19T11:39:45;5.45;;;4.30;;
63499;SDS011;49654;51.142;14.924;2023-04-19T11:42:16;8.20;;;5.25;;
63499;SDS011;49654;51.142;14.924;2023-04-19T11:44:47;7.72;;;4.80;;
63499;SDS011;49654;51.142;14.924;2023-04-19T11:47:14;7.00;;;4.90;;
63499;SDS011;49654;51.142;14.924;2023-04-19T11:49:41;5.85;;;4.70;;
63499;SDS011;49654;51.142;14.924;2023-04-19T11:52:08;7.78;;;5.25;;
63499;SDS011;49654;51.142;14.924;2023-04-19T11:54:35;8.18;;;5.13;;
63499;SDS011;49654;51.142;14.924;2023-04-19T11:57:04;8.68;;;5.10;;
63499;SDS011;49654;51.142;14.924;2023-04-19T11:59:32;7.75;;;4.85;;
63499;SDS011;49654;51.142;14.924;2023-04-19T12:02:04;9.70;;;5.15;;
63499;SDS011;49654;51.142;14.924;2023-04-19T12:04:32;7.47;;;4.93;;
63499;SDS011;49654;51.142;14.924;2023-04-19T12:06:59;6.50;;;4.85;;
63499;SDS011;49654;51.142;14.924;2023-04-19T12:09:27;7.10;;;5.35;;
63499;SDS011;49654;51.142;14.924;2023-04-19T12:11:55;7.60;;;5.80;;
63499;SDS011;49654;51.142;14.924;2023-04-19T12:14:24;9.10;;;5.28;;
63499;SDS011;49654;51.142;14.924;2023-04-19T12:17:07;7.07;;;5.00;;
63499;SDS011;49654;51.142;14.924;2023-04-19T12:19:36;14.15;;;5.82;;
63499;SDS011;49654;51.142;14.924;2023-04-19T12:22:08;7.55;;;5.13;;
63499;SDS011;49654;51.142;14.924;2023-04-19T12:24:37;6.30;;;4.47;;
63499;SDS011;49654;51.142;14.924;2023-04-19T12:27:05;6.90;;;4.78;;
63499;SDS011;49654;51.142;14.924;2023-04-19T12:29:34;11.20;;;5.25;;
63499;SDS011;49654;51.142;14.924;2023-04-19T12:32:01;8.73;;;5.15;;
63499;SDS011;49654;51.142;14.924;2023-04-19T12:34:28;12.75;;;5.00;;
63499;SDS011;49654;51.142;14.924;2023-04-19T12:36:56;7.47;;;4.60;;
63499;SDS011;49654;51.142;14.924;2023-04-19T12:39:23;8.00;;;5.15;;
63499;SDS011;49654;51.142;14.924;2023-04-19T12:41:50;6.05;;;4.90;;
63499;SDS011;49654;51.142;14.924;2023-04-19T12:44:17;7.68;;;5.00;;
63499;SDS011;49654;51.142;14.924;2023-04-19T12:46:45;7.55;;;5.35;;
63499;SDS011;49654;51.142;14.924;2023-04-19T12:49:12;11.27;;;4.88;;
63499;SDS011;49654;51.142;14.924;2023-04-19T12:51:39;7.97;;;4.93;;
63499;SDS011;49654;51.142;14.924;2023-04-19T12:54:07;6.28;;;4.43;;
63499;SDS011;49654;51.142;14.924;2023-04-19T12:56:34;6.32;;;4.60;;
63499;SDS011;49654;51.142;14.924;2023-04-19T12:59:01;5.28;;;4.60;;
63499;SDS011;49654;51.142;14.924;2023-04-19T13:01:28;8.82;;;4.55;;
63499;SDS011;49654;51.142;14.924;2023-04-19T13:03:56;6.50;;;5.75;;
63499;SDS011;49654;51.142;14.924;2023-04-19T13:06:23;11.43;;;9.00;;
63499;SDS011;49654;51.142;14.924;2023-04-19T13:08:50;5.53;;;4.90;;
63499;SDS011;49654;51.142;14.924;2023-04-19T13:11:17;10.55;;;6.88;;
63499;SDS011;49654;51.142;14.924;2023-04-19T13:13:48;10.95;;;7.78;;
63499;SDS011;49654;51.142;14.924;2023-04-19T13:16:17;10.85;;;9.43;;
63499;SDS011;49654;51.142;14.924;2023-04-19T13:18:44;9.32;;;7.78;;
63499;SDS011;49654;51.142;14.924;2023-04-19T13:21:12;10.80;;;6.60;;
63499;SDS011;49654;51.142;14.924;2023-04-19T13:23:41;10.50;;;8.38;;
63499;SDS011;49654;51.142;14.924;2023-04-19T13:26:08;9.25;;;7.15;;
63499;SDS011;49654;51.142;14.924;2023-04-19T13:28:35;8.43;;;6.78;;
63499;SDS011;49654;51.142;14.924;2023-04-19T13:31:02;9.18;;;6.80;;
63499;SDS011;49654;51.142;14.924;2023-04-19T13:33:30;12.63;;;9.63;;
63499;SDS011;49654;51.142;14.924;2023-04-19T13:35:57;6.50;;;4.45;;
63499;SDS011;49654;51.142;14.924;2023-04-19T13:38:26;9.63;;;7.72;;
63499;SDS011;49654;51.142;14.924;2023-04-19T13:40:53;4.25;;;3.85;;
63499;SDS011;49654;51.142;14.924;2023-04-19T13:43:20;6.82;;;6.15;;
63499;SDS011;49654;51.142;14.924;2023-04-19T13:45:47;7.88;;;6.20;;
63499;SDS011;49654;51.142;14.924;2023-04-19T13:48:14;6.68;;;5.80;;
63499;SDS011;49654;51.142;14.924;2023-04-19T13:50:41;7.47;;;4.88;;
63499;SDS011;49654;51.142;14.924;2023-04-19T13:53:08;6.18;;;5.38;;
63499;SDS011;49654;51.142;14.924;2023-04-19T13:55:37;6.22;;;4.47;;
63499;SDS011;49654;51.142;14.924;2023-04-19T13:58:03;5.82;;;4.30;;
63499;SDS011;49654;51.142;14.924;2023-04-19T14:00:30;6.05;;;4.80;;
63499;SDS011;49654;51.142;14.924;2023-04-19T14:02:58;6.78;;;5.40;;
63499;SDS011;49654;51.142;14.924;2023-04-19T14:05:25;12.55;;;9.18;;
63499;SDS011;49654;51.142;14.924;2023-04-19T14:07:52;9.50;;;7.18;;
63499;SDS011;49654;51.142;14.924;2023-04-19T14:10:19;5.63;;;4.13;;
63499;SDS011;49654;51.142;14.924;2023-04-19T14:12:47;8.95;;;6.10;;
63499;SDS011;49654;51.142;14.924;2023-04-19T14:15:17;2.70;;;2.50;;
63499;SDS011;49654;51.142;14.924;2023-04-19T14:17:44;5.75;;;3.38;;
63499;SDS011;49654;51.142;14.924;2023-04-19T14:20:10;3.22;;;2.92;;
63499;SDS011;49654;51.142;14.924;2023-04-19T14:22:38;4.17;;;3.47;;
63499;SDS011;49654;51.142;14.924;2023-04-19T14:25:05;7.45;;;3.60;;
63499;SDS011;49654;51.142;14.924;2023-04-19T14:27:32;4.35;;;3.88;;
63499;SDS011;49654;51.142;14.924;2023-04-19T14:30:01;5.45;;;4.80;;
63499;SDS011;49654;51.142;14.924;2023-04-19T14:32:29;6.60;;;5.90;;